Airfield :
LOGIN :

Register | Disclaimer

   EN    FR    IT 

 










Legend :    VFR   Marginal VFR   IFR   Intensive IFR   Very Intensive IFR
Visi :
Ceiling :
>= 8 km
>= 3000ft
5 to 8 km
1000 to 3000 ft
1500m to 5 km
500 to 1000 ft
800 to 1500m
200 to 500 ft
< 800m
< 200 ft
Symbols :   Thunderstorms  Fog  Heavy snow  Heavy precipitations  Wind > 20 kt
SIGMETs :     Misc.  Thunderstorms  Icing  Turbulence  Mountain Waves  Volcanic Ashes







- Airport Elevation : 1521 ft
- IATA code : NCY
- Download approach charts


LFLP - Annecy

CURRENT METAR :
  • 211630Z AUTO 33007KT 280V010 9999 BKN064/// ///CB 24/12 Q1013 TEMPO 4000 SHRA BECMG NSC

EXPIRED METARs :
  • 211600Z AUTO 33008KT 280V020 9999 FEW048/// BKN100/// ///CB 25/13 Q1013 TEMPO 4000 SHRA
  • 211530Z AUTO 33004KT 260V030 9999 BKN049 BKN060 BKN100 24/13 Q1014 TEMPO 4000 SHRA SCT035TCU BKN040
  • 211500Z AUTO 34007KT 290V050 9999 FEW050 SCT100 25/14 Q1014 TEMPO 4000 SHRA SCT035TCU BKN040
  • 211430Z AUTO 32007KT 270V360 9999 SCT048 SCT054 BKN100 24/13 Q1014 TEMPO 4000 SHRA SCT035TCU BKN040
  • 211400Z AUTO 31004KT 240V030 9999 BKN047 BKN054 BKN068 24/13 Q1014 TEMPO VRB15G25KT 2000 TSRA SCT030CB SCT035TCU

TAF TAF LFLP
Valid from the 21 at 15:00 until the 22 at 15:00 UTC


211400Z 2115/2215 30005KT 9999 FEW035TCU SCT040
PROB40
TEMPO 2115/2118 4000 SHRA SCT035TCU BKN040
BECMG 2118/2120 VRB03KT CAVOK
BECMG 2206/2208 01006KT
No reported NOTAMs for that airfield.



MET'MAP, your aeronautical weather chart ! - Copyright ORBIFLY December 2007 - Disclaimer

ORBIFLY MET'MAP TEAM :

Programming & Development : Alexandra Zaïnal
Concept & Development : Baudouin d'Aumeries
Co-Development & Prog : Marc-Olivier Méhu
Technical & hardware support : Manuel Goepfert

Contact : metmap@orbifly.com




SOURCES & CREDITS :

   NOAA